sensor_id;sensor_type;location;lat;lon;timestamp;temperature;humidity
4399;DHT22;2213;49.720;7.296;2022-12-13T00:01:59;-2.60;99.90
4399;DHT22;2213;49.720;7.296;2022-12-13T00:04:30;-2.60;99.90
4399;DHT22;2213;49.720;7.296;2022-12-13T00:07:00;-2.60;99.90
4399;DHT22;2213;49.720;7.296;2022-12-13T00:09:30;-2.50;99.90
4399;DHT22;2213;49.720;7.296;2022-12-13T00:12:00;-2.50;99.90
4399;DHT22;2213;49.720;7.296;2022-12-13T00:14:29;-2.40;99.90
4399;DHT22;2213;49.720;7.296;2022-12-13T00:17:00;-2.40;99.90
4399;DHT22;2213;49.720;7.296;2022-12-13T00:19:31;-2.40;99.90
4399;DHT22;2213;49.720;7.296;2022-12-13T00:22:01;-2.40;99.90
4399;DHT22;2213;49.720;7.296;2022-12-13T00:24:30;-2.30;99.90
4399;DHT22;2213;49.720;7.296;2022-12-13T00:26:59;-2.40;99.90
4399;DHT22;2213;49.720;7.296;2022-12-13T00:29:29;-2.40;99.90
4399;DHT22;2213;49.720;7.296;2022-12-13T00:31:59;-2.40;99.90
4399;DHT22;2213;49.720;7.296;2022-12-13T00:34:28;-2.50;99.90
4399;DHT22;2213;49.720;7.296;2022-12-13T00:36:59;-2.40;99.90
4399;DHT22;2213;49.720;7.296;2022-12-13T00:39:29;-2.50;99.90
4399;DHT22;2213;49.720;7.296;2022-12-13T00:41:57;-2.30;99.90
4399;DHT22;2213;49.720;7.296;2022-12-13T00:44:26;-2.40;99.90
4399;DHT22;2213;49.720;7.296;2022-12-13T00:46:57;-2.40;99.90
4399;DHT22;2213;49.720;7.296;2022-12-13T00:49:25;-2.30;99.90
4399;DHT22;2213;49.720;7.296;2022-12-13T00:51:56;-2.40;99.90
4399;DHT22;2213;49.720;7.296;2022-12-13T00:54:27;-2.30;99.90
4399;DHT22;2213;49.720;7.296;2022-12-13T00:56:57;-2.30;99.90
4399;DHT22;2213;49.720;7.296;2022-12-13T00:59:27;-2.20;99.90
4399;DHT22;2213;49.720;7.296;2022-12-13T01:01:57;-2.30;99.90
4399;DHT22;2213;49.720;7.296;2022-12-13T01:04:26;-2.30;99.90
4399;DHT22;2213;49.720;7.296;2022-12-13T01:06:57;-2.30;99.90
4399;DHT22;2213;49.720;7.296;2022-12-13T01:09:27;-2.20;99.90
4399;DHT22;2213;49.720;7.296;2022-12-13T01:11:57;-2.20;99.90
4399;DHT22;2213;49.720;7.296;2022-12-13T01:14:28;-2.20;99.90
4399;DHT22;2213;49.720;7.296;2022-12-13T01:16:57;-2.30;99.90
4399;DHT22;2213;49.720;7.296;2022-12-13T01:19:27;-2.30;99.90
4399;DHT22;2213;49.720;7.296;2022-12-13T01:21:59;-2.30;99.90
4399;DHT22;2213;49.720;7.296;2022-12-13T01:24:30;-2.40;99.90
4399;DHT22;2213;49.720;7.296;2022-12-13T01:27:00;-2.40;99.90
4399;DHT22;2213;49.720;7.296;2022-12-13T01:29:30;-2.40;99.90
4399;DHT22;2213;49.720;7.296;2022-12-13T01:32:00;-2.30;99.90
4399;DHT22;2213;49.720;7.296;2022-12-13T01:34:30;-2.30;99.90
4399;DHT22;2213;49.720;7.296;2022-12-13T01:37:01;-2.30;99.90
4399;DHT22;2213;49.720;7.296;2022-12-13T01:39:30;-2.30;99.90
4399;DHT22;2213;49.720;7.296;2022-12-13T01:42:05;-2.40;99.90
4399;DHT22;2213;49.720;7.296;2022-12-13T01:44:59;-2.40;99.90
4399;DHT22;2213;49.720;7.296;2022-12-13T01:47:34;-2.40;99.90
4399;DHT22;2213;49.720;7.296;2022-12-13T01:50:11;-2.40;99.90
4399;DHT22;2213;49.720;7.296;2022-12-13T01:52:46;-2.40;99.90
4399;DHT22;2213;49.720;7.296;2022-12-13T01:55:17;-2.40;99.90
4399;DHT22;2213;49.720;7.296;2022-12-13T01:57:49;-2.50;99.90
4399;DHT22;2213;49.720;7.296;2022-12-13T02:00:21;-2.50;99.90
4399;DHT22;2213;49.720;7.296;2022-12-13T02:02:52;-2.50;99.90
4399;DHT22;2213;49.720;7.296;2022-12-13T02:05:29;-2.50;99.90
4399;DHT22;2213;49.720;7.296;2022-12-13T02:08:04;-2.50;99.90
4399;DHT22;2213;49.720;7.296;2022-12-13T02:10:35;-2.50;99.90
4399;DHT22;2213;49.720;7.296;2022-12-13T02:13:05;-2.40;99.90
4399;DHT22;2213;49.720;7.296;2022-12-13T02:15:39;-2.40;99.90
4399;DHT22;2213;49.720;7.296;2022-12-13T02:18:27;-2.40;99.90
4399;DHT22;2213;49.720;7.296;2022-12-13T02:21:18;-2.50;99.90
4399;DHT22;2213;49.720;7.296;2022-12-13T02:27:06;-2.40;99.90
4399;DHT22;2213;49.720;7.296;2022-12-13T02:33:20;-2.30;99.90
4399;DHT22;2213;49.720;7.296;2022-12-13T02:36:07;-2.30;99.90
4399;DHT22;2213;49.720;7.296;2022-12-13T02:38:48;-2.40;99.90
4399;DHT22;2213;49.720;7.296;2022-12-13T02:41:27;-2.40;99.90
4399;DHT22;2213;49.720;7.296;2022-12-13T02:44:05;-2.40;99.90
4399;DHT22;2213;49.720;7.296;2022-12-13T02:46:54;-2.50;99.90
4399;DHT22;2213;49.720;7.296;2022-12-13T02:49:30;-2.50;99.90
4399;DHT22;2213;49.720;7.296;2022-12-13T02:52:02;-2.50;99.90
4399;DHT22;2213;49.720;7.296;2022-12-13T02:54:39;-2.40;99.90
4399;DHT22;2213;49.720;7.296;2022-12-13T02:57:31;-2.40;99.90
4399;DHT22;2213;49.720;7.296;2022-12-13T03:00:06;-2.50;99.90
4399;DHT22;2213;49.720;7.296;2022-12-13T03:02:48;-2.50;99.90
4399;DHT22;2213;49.720;7.296;2022-12-13T03:05:38;-2.40;99.90
4399;DHT22;2213;49.720;7.296;2022-12-13T03:08:41;-2.40;99.90
4399;DHT22;2213;49.720;7.296;2022-12-13T03:11:19;-2.30;99.90
4399;DHT22;2213;49.720;7.296;2022-12-13T03:13:52;-2.30;99.90
4399;DHT22;2213;49.720;7.296;2022-12-13T03:16:27;-2.40;99.90
4399;DHT22;2213;49.720;7.296;2022-12-13T03:19:05;-2.40;99.90
4399;DHT22;2213;49.720;7.296;2022-12-13T03:21:37;-2.40;99.90
4399;DHT22;2213;49.720;7.296;2022-12-13T03:24:15;-2.40;99.90
4399;DHT22;2213;49.720;7.296;2022-12-13T03:26:45;-2.40;99.90
4399;DHT22;2213;49.720;7.296;2022-12-13T03:29:17;-2.40;99.90
4399;DHT22;2213;49.720;7.296;2022-12-13T03:31:51;-2.50;99.90
4399;DHT22;2213;49.720;7.296;2022-12-13T03:34:21;-2.50;99.90
4399;DHT22;2213;49.720;7.296;2022-12-13T03:36:50;-2.50;99.90
4399;DHT22;2213;49.720;7.296;2022-12-13T03:39:21;-2.60;99.90
4399;DHT22;2213;49.720;7.296;2022-12-13T03:41:52;-2.60;99.90
4399;DHT22;2213;49.720;7.296;2022-12-13T03:44:21;-2.60;99.90
4399;DHT22;2213;49.720;7.296;2022-12-13T03:46:57;-2.60;99.90
4399;DHT22;2213;49.720;7.296;2022-12-13T03:49:29;-2.80;99.90
4399;DHT22;2213;49.720;7.296;2022-12-13T03:52:02;-2.70;99.90
4399;DHT22;2213;49.720;7.296;2022-12-13T03:54:33;-2.60;99.90
4399;DHT22;2213;49.720;7.296;2022-12-13T03:57:02;-2.60;99.90
4399;DHT22;2213;49.720;7.296;2022-12-13T03:59:32;-2.60;99.90
4399;DHT22;2213;49.720;7.296;2022-12-13T04:02:02;-2.60;99.90
4399;DHT22;2213;49.720;7.296;2022-12-13T04:04:34;-2.60;99.90
4399;DHT22;2213;49.720;7.296;2022-12-13T04:07:04;-2.70;99.90
4399;DHT22;2213;49.720;7.296;2022-12-13T04:09:49;-2.70;99.90
4399;DHT22;2213;49.720;7.296;2022-12-13T04:12:18;-2.70;99.90
4399;DHT22;2213;49.720;7.296;2022-12-13T04:15:06;-2.70;99.90
4399;DHT22;2213;49.720;7.296;2022-12-13T04:17:39;-2.70;99.90
4399;DHT22;2213;49.720;7.296;2022-12-13T04:20:18;-2.60;99.90
4399;DHT22;2213;49.720;7.296;2022-12-13T04:22:49;-2.60;99.90
4399;DHT22;2213;49.720;7.296;2022-12-13T04:25:18;-2.60;99.90
4399;DHT22;2213;49.720;7.296;2022-12-13T04:27:47;-2.60;99.90
4399;DHT22;2213;49.720;7.296;2022-12-13T04:30:17;-2.60;99.90
4399;DHT22;2213;49.720;7.296;2022-12-13T04:32:48;-2.60;99.90
4399;DHT22;2213;49.720;7.296;2022-12-13T04:35:20;-2.60;99.90
4399;DHT22;2213;49.720;7.296;2022-12-13T04:37:51;-2.70;99.90
4399;DHT22;2213;49.720;7.296;2022-12-13T04:40:21;-2.60;99.90
4399;DHT22;2213;49.720;7.296;2022-12-13T04:42:50;-2.70;99.90
4399;DHT22;2213;49.720;7.296;2022-12-13T04:45:21;-2.60;99.90
4399;DHT22;2213;49.720;7.296;2022-12-13T04:47:51;-2.70;99.90
4399;DHT22;2213;49.720;7.296;2022-12-13T04:50:23;-2.70;99.90
4399;DHT22;2213;49.720;7.296;2022-12-13T04:52:52;-2.70;99.90
4399;DHT22;2213;49.720;7.296;2022-12-13T04:55:21;-2.80;99.90
4399;DHT22;2213;49.720;7.296;2022-12-13T04:57:50;-2.80;99.90
4399;DHT22;2213;49.720;7.296;2022-12-13T05:00:20;-2.80;99.90
4399;DHT22;2213;49.720;7.296;2022-12-13T05:02:51;-2.70;99.90
4399;DHT22;2213;49.720;7.296;2022-12-13T05:05:24;-2.80;99.90
4399;DHT22;2213;49.720;7.296;2022-12-13T05:07:52;-2.80;99.90
4399;DHT22;2213;49.720;7.296;2022-12-13T05:10:23;-2.80;99.90
4399;DHT22;2213;49.720;7.296;2022-12-13T05:13:04;-2.90;99.90
4399;DHT22;2213;49.720;7.296;2022-12-13T05:15:33;-2.90;99.90
4399;DHT22;2213;49.720;7.296;2022-12-13T05:18:04;-3.00;99.90
4399;DHT22;2213;49.720;7.296;2022-12-13T05:20:38;-3.00;99.90
4399;DHT22;2213;49.720;7.296;2022-12-13T05:23:08;-2.90;99.90
4399;DHT22;2213;49.720;7.296;2022-12-13T05:25:38;-2.90;99.90
4399;DHT22;2213;49.720;7.296;2022-12-13T05:28:09;-3.00;99.90
4399;DHT22;2213;49.720;7.296;2022-12-13T05:30:56;-2.90;99.90
4399;DHT22;2213;49.720;7.296;2022-12-13T05:33:26;-3.00;99.90
4399;DHT22;2213;49.720;7.296;2022-12-13T05:35:56;-3.00;99.90
4399;DHT22;2213;49.720;7.296;2022-12-13T05:38:28;-2.90;99.90
4399;DHT22;2213;49.720;7.296;2022-12-13T05:40:57;-2.80;99.90
4399;DHT22;2213;49.720;7.296;2022-12-13T05:43:26;-3.00;99.90
4399;DHT22;2213;49.720;7.296;2022-12-13T05:46:10;-3.00;99.90
4399;DHT22;2213;49.720;7.296;2022-12-13T05:48:40;-3.00;99.90
4399;DHT22;2213;49.720;7.296;2022-12-13T05:51:11;-3.00;99.90
4399;DHT22;2213;49.720;7.296;2022-12-13T05:53:41;-2.90;99.90
4399;DHT22;2213;49.720;7.296;2022-12-13T05:56:16;-3.00;99.90
4399;DHT22;2213;49.720;7.296;2022-12-13T05:58:50;-3.10;99.90
4399;DHT22;2213;49.720;7.296;2022-12-13T06:01:21;-3.10;99.90
4399;DHT22;2213;49.720;7.296;2022-12-13T06:03:51;-3.10;99.90
4399;DHT22;2213;49.720;7.296;2022-12-13T06:06:23;-3.10;99.90
4399;DHT22;2213;49.720;7.296;2022-12-13T06:08:52;-3.30;99.90
4399;DHT22;2213;49.720;7.296;2022-12-13T06:11:22;-3.20;99.90
4399;DHT22;2213;49.720;7.296;2022-12-13T06:13:58;-3.20;99.90
4399;DHT22;2213;49.720;7.296;2022-12-13T06:16:28;-3.20;99.90
4399;DHT22;2213;49.720;7.296;2022-12-13T06:18:58;-3.10;99.90
4399;DHT22;2213;49.720;7.296;2022-12-13T06:21:33;-3.20;99.90
4399;DHT22;2213;49.720;7.296;2022-12-13T06:24:10;-3.30;99.90
4399;DHT22;2213;49.720;7.296;2022-12-13T06:26:40;-3.20;99.90
4399;DHT22;2213;49.720;7.296;2022-12-13T06:29:13;-3.10;99.90
4399;DHT22;2213;49.720;7.296;2022-12-13T06:31:54;-3.30;99.90
4399;DHT22;2213;49.720;7.296;2022-12-13T06:34:30;-3.20;99.90
4399;DHT22;2213;49.720;7.296;2022-12-13T06:37:05;-3.20;99.90
4399;DHT22;2213;49.720;7.296;2022-12-13T06:39:36;-3.20;99.90
4399;DHT22;2213;49.720;7.296;2022-12-13T06:42:09;-3.10;99.90
4399;DHT22;2213;49.720;7.296;2022-12-13T06:44:48;-3.10;99.90
4399;DHT22;2213;49.720;7.296;2022-12-13T06:47:23;-3.30;99.90
4399;DHT22;2213;49.720;7.296;2022-12-13T06:49:58;-3.20;99.90
4399;DHT22;2213;49.720;7.296;2022-12-13T06:52:34;-3.30;99.90
4399;DHT22;2213;49.720;7.296;2022-12-13T06:55:04;-3.30;99.90
4399;DHT22;2213;49.720;7.296;2022-12-13T06:57:34;-3.40;99.90
4399;DHT22;2213;49.720;7.296;2022-12-13T07:00:08;-3.40;99.90
4399;DHT22;2213;49.720;7.296;2022-12-13T07:02:51;-3.30;99.90
4399;DHT22;2213;49.720;7.296;2022-12-13T07:05:21;-3.30;99.90
4399;DHT22;2213;49.720;7.296;2022-12-13T07:07:53;-3.30;99.90
4399;DHT22;2213;49.720;7.296;2022-12-13T07:10:23;-3.30;99.90
4399;DHT22;2213;49.720;7.296;2022-12-13T07:12:52;-3.30;99.90
4399;DHT22;2213;49.720;7.296;2022-12-13T07:15:21;-3.40;99.90
4399;DHT22;2213;49.720;7.296;2022-12-13T07:17:50;-3.40;99.90
4399;DHT22;2213;49.720;7.296;2022-12-13T07:20:22;-3.30;99.90
4399;DHT22;2213;49.720;7.296;2022-12-13T07:22:52;-3.40;99.90
4399;DHT22;2213;49.720;7.296;2022-12-13T07:25:25;-3.40;99.90
4399;DHT22;2213;49.720;7.296;2022-12-13T07:27:57;-3.40;99.90
4399;DHT22;2213;49.720;7.296;2022-12-13T07:30:30;-3.40;99.90
4399;DHT22;2213;49.720;7.296;2022-12-13T07:33:08;-3.50;99.90
4399;DHT22;2213;49.720;7.296;2022-12-13T07:35:38;-3.40;99.90
4399;DHT22;2213;49.720;7.296;2022-12-13T07:38:10;-3.40;99.90
4399;DHT22;2213;49.720;7.296;2022-12-13T07:40:40;-3.40;99.90
4399;DHT22;2213;49.720;7.296;2022-12-13T07:43:09;-3.50;99.90
4399;DHT22;2213;49.720;7.296;2022-12-13T07:45:42;-3.40;99.90
4399;DHT22;2213;49.720;7.296;2022-12-13T07:48:12;-3.40;99.90
4399;DHT22;2213;49.720;7.296;2022-12-13T07:50:42;-3.40;99.90
4399;DHT22;2213;49.720;7.296;2022-12-13T07:53:22;-3.40;99.90
4399;DHT22;2213;49.720;7.296;2022-12-13T07:55:51;-3.50;99.90
4399;DHT22;2213;49.720;7.296;2022-12-13T07:58:20;-3.50;99.90
4399;DHT22;2213;49.720;7.296;2022-12-13T08:00:50;-3.50;99.90
4399;DHT22;2213;49.720;7.296;2022-12-13T08:03:19;-3.40;99.90
4399;DHT22;2213;49.720;7.296;2022-12-13T08:05:58;-3.40;99.90
4399;DHT22;2213;49.720;7.296;2022-12-13T08:08:29;-3.40;99.90
4399;DHT22;2213;49.720;7.296;2022-12-13T08:11:00;-3.40;99.90
4399;DHT22;2213;49.720;7.296;2022-12-13T08:13:31;-3.40;99.90
4399;DHT22;2213;49.720;7.296;2022-12-13T08:16:00;-3.50;99.90
4399;DHT22;2213;49.720;7.296;2022-12-13T08:18:50;-3.40;99.90
4399;DHT22;2213;49.720;7.296;2022-12-13T08:21:33;-3.50;99.90
4399;DHT22;2213;49.720;7.296;2022-12-13T08:24:22;-3.60;99.90
4399;DHT22;2213;49.720;7.296;2022-12-13T08:26:52;-3.40;99.90
4399;DHT22;2213;49.720;7.296;2022-12-13T08:29:24;-3.60;99.90
4399;DHT22;2213;49.720;7.296;2022-12-13T08:32:02;-3.60;99.90
4399;DHT22;2213;49.720;7.296;2022-12-13T08:34:32;-3.70;99.90
4399;DHT22;2213;49.720;7.296;2022-12-13T08:37:01;-3.70;99.90
4399;DHT22;2213;49.720;7.296;2022-12-13T08:39:33;-3.70;99.90
4399;DHT22;2213;49.720;7.296;2022-12-13T08:42:05;-3.60;99.90
4399;DHT22;2213;49.720;7.296;2022-12-13T08:44:45;-3.50;99.90
4399;DHT22;2213;49.720;7.296;2022-12-13T08:47:16;-3.50;99.90
4399;DHT22;2213;49.720;7.296;2022-12-13T08:49:52;-3.50;99.90
4399;DHT22;2213;49.720;7.296;2022-12-13T08:52:29;-3.40;99.90
4399;DHT22;2213;49.720;7.296;2022-12-13T08:55:11;-3.40;99.90
4399;DHT22;2213;49.720;7.296;2022-12-13T08:57:42;-3.40;99.90
4399;DHT22;2213;49.720;7.296;2022-12-13T09:00:15;-3.50;99.90
4399;DHT22;2213;49.720;7.296;2022-12-13T09:02:47;-3.60;99.90
4399;DHT22;2213;49.720;7.296;2022-12-13T09:05:20;-3.50;99.90
4399;DHT22;2213;49.720;7.296;2022-12-13T09:08:00;-3.50;99.90
4399;DHT22;2213;49.720;7.296;2022-12-13T09:10:56;-3.40;99.90
4399;DHT22;2213;49.720;7.296;2022-12-13T09:13:27;-3.40;99.90
4399;DHT22;2213;49.720;7.296;2022-12-13T09:16:03;-3.40;99.90
4399;DHT22;2213;49.720;7.296;2022-12-13T09:18:50;-3.30;99.90
4399;DHT22;2213;49.720;7.296;2022-12-13T09:21:22;-3.30;99.90
4399;DHT22;2213;49.720;7.296;2022-12-13T09:23:59;-3.20;99.90
4399;DHT22;2213;49.720;7.296;2022-12-13T09:26:30;-3.20;99.90
4399;DHT22;2213;49.720;7.296;2022-12-13T09:29:05;-3.20;99.90
4399;DHT22;2213;49.720;7.296;2022-12-13T09:31:38;-3.10;99.90
4399;DHT22;2213;49.720;7.296;2022-12-13T09:34:08;-3.20;99.90
4399;DHT22;2213;49.720;7.296;2022-12-13T09:36:37;-3.20;99.90
4399;DHT22;2213;49.720;7.296;2022-12-13T09:39:07;-3.10;99.90
4399;DHT22;2213;49.720;7.296;2022-12-13T09:41:42;-3.00;99.90
4399;DHT22;2213;49.720;7.296;2022-12-13T09:44:19;-3.10;99.90
4399;DHT22;2213;49.720;7.296;2022-12-13T09:47:14;-3.00;99.90
4399;DHT22;2213;49.720;7.296;2022-12-13T09:50:05;-3.00;99.90
4399;DHT22;2213;49.720;7.296;2022-12-13T09:52:42;-3.00;99.90
4399;DHT22;2213;49.720;7.296;2022-12-13T09:55:19;-2.90;99.90
4399;DHT22;2213;49.720;7.296;2022-12-13T09:57:51;-2.90;99.90
4399;DHT22;2213;49.720;7.296;2022-12-13T10:00:23;-2.80;99.90
4399;DHT22;2213;49.720;7.296;2022-12-13T10:02:57;-2.90;99.90
4399;DHT22;2213;49.720;7.296;2022-12-13T10:05:29;-2.80;99.90
4399;DHT22;2213;49.720;7.296;2022-12-13T10:08:07;-2.70;99.90
4399;DHT22;2213;49.720;7.296;2022-12-13T10:10:42;-2.70;99.90
4399;DHT22;2213;49.720;7.296;2022-12-13T10:13:16;-2.60;99.90
4399;DHT22;2213;49.720;7.296;2022-12-13T10:15:53;-2.70;99.90
4399;DHT22;2213;49.720;7.296;2022-12-13T10:18:33;-2.60;99.90
4399;DHT22;2213;49.720;7.296;2022-12-13T10:21:08;-2.50;99.90
4399;DHT22;2213;49.720;7.296;2022-12-13T10:23:40;-2.50;99.90
4399;DHT22;2213;49.720;7.296;2022-12-13T10:26:34;-2.40;99.90
4399;DHT22;2213;49.720;7.296;2022-12-13T10:29:06;-2.50;99.90
4399;DHT22;2213;49.720;7.296;2022-12-13T10:31:40;-2.50;99.90
4399;DHT22;2213;49.720;7.296;2022-12-13T10:34:21;-2.60;99.90
4399;DHT22;2213;49.720;7.296;2022-12-13T10:36:52;-2.60;99.90
4399;DHT22;2213;49.720;7.296;2022-12-13T10:39:39;-2.60;99.90
4399;DHT22;2213;49.720;7.296;2022-12-13T10:42:12;-2.50;99.90
4399;DHT22;2213;49.720;7.296;2022-12-13T10:45:08;-2.60;99.90
4399;DHT22;2213;49.720;7.296;2022-12-13T10:47:42;-2.50;99.90
4399;DHT22;2213;49.720;7.296;2022-12-13T10:50:23;-2.50;99.90
4399;DHT22;2213;49.720;7.296;2022-12-13T10:52:56;-2.50;99.90
4399;DHT22;2213;49.720;7.296;2022-12-13T10:55:29;-2.60;99.90
4399;DHT22;2213;49.720;7.296;2022-12-13T10:58:03;-2.60;99.90
4399;DHT22;2213;49.720;7.296;2022-12-13T11:00:40;-2.60;99.90
4399;DHT22;2213;49.720;7.296;2022-12-13T11:03:12;-2.60;99.90
4399;DHT22;2213;49.720;7.296;2022-12-13T11:06:03;-2.60;99.90
4399;DHT22;2213;49.720;7.296;2022-12-13T11:08:34;-2.60;99.90
4399;DHT22;2213;49.720;7.296;2022-12-13T11:11:05;-2.70;99.90
4399;DHT22;2213;49.720;7.296;2022-12-13T11:13:40;-2.60;99.90
4399;DHT22;2213;49.720;7.296;2022-12-13T11:16:20;-2.70;99.90
4399;DHT22;2213;49.720;7.296;2022-12-13T11:18:55;-2.70;99.90
4399;DHT22;2213;49.720;7.296;2022-12-13T11:21:29;-2.60;99.90
4399;DHT22;2213;49.720;7.296;2022-12-13T11:24:03;-2.30;99.90
4399;DHT22;2213;49.720;7.296;2022-12-13T11:26:37;-2.40;99.90
4399;DHT22;2213;49.720;7.296;2022-12-13T11:29:25;-2.50;99.90
4399;DHT22;2213;49.720;7.296;2022-12-13T11:32:15;-2.50;99.90
4399;DHT22;2213;49.720;7.296;2022-12-13T11:35:00;-2.40;99.90
4399;DHT22;2213;49.720;7.296;2022-12-13T11:37:46;-2.50;99.90
4399;DHT22;2213;49.720;7.296;2022-12-13T11:40:24;-2.50;99.90
4399;DHT22;2213;49.720;7.296;2022-12-13T11:42:59;-2.60;99.90
4399;DHT22;2213;49.720;7.296;2022-12-13T11:45:36;-2.60;99.90
4399;DHT22;2213;49.720;7.296;2022-12-13T11:48:16;-2.60;99.90
4399;DHT22;2213;49.720;7.296;2022-12-13T11:50:51;-2.60;99.90
4399;DHT22;2213;49.720;7.296;2022-12-13T11:53:29;-2.60;99.90
4399;DHT22;2213;49.720;7.296;2022-12-13T11:56:07;-2.60;99.90
4399;DHT22;2213;49.720;7.296;2022-12-13T11:58:49;-2.70;99.90
4399;DHT22;2213;49.720;7.296;2022-12-13T12:01:40;-2.60;99.90
4399;DHT22;2213;49.720;7.296;2022-12-13T12:04:25;-2.70;99.90
4399;DHT22;2213;49.720;7.296;2022-12-13T12:07:03;-2.70;99.90
4399;DHT22;2213;49.720;7.296;2022-12-13T12:10:03;-2.60;99.90
4399;DHT22;2213;49.720;7.296;2022-12-13T12:12:46;-2.60;99.90
4399;DHT22;2213;49.720;7.296;2022-12-13T12:15:25;-2.60;99.90
4399;DHT22;2213;49.720;7.296;2022-12-13T12:18:12;-2.70;99.90
4399;DHT22;2213;49.720;7.296;2022-12-13T12:20:55;-2.60;99.90
4399;DHT22;2213;49.720;7.296;2022-12-13T12:23:49;-2.60;99.90
4399;DHT22;2213;49.720;7.296;2022-12-13T12:26:36;-2.60;99.90
4399;DHT22;2213;49.720;7.296;2022-12-13T12:29:25;-2.60;99.90
4399;DHT22;2213;49.720;7.296;2022-12-13T12:32:15;-2.60;99.90
4399;DHT22;2213;49.720;7.296;2022-12-13T12:35:01;-2.60;99.90
4399;DHT22;2213;49.720;7.296;2022-12-13T12:37:49;-2.50;99.90
4399;DHT22;2213;49.720;7.296;2022-12-13T12:40:36;-2.40;99.90
4399;DHT22;2213;49.720;7.296;2022-12-13T12:43:39;-2.60;99.90
4399;DHT22;2213;49.720;7.296;2022-12-13T12:46:28;-2.50;99.90
4399;DHT22;2213;49.720;7.296;2022-12-13T12:50:17;-2.50;99.90
4399;DHT22;2213;49.720;7.296;2022-12-13T12:53:01;-2.50;99.90
4399;DHT22;2213;49.720;7.296;2022-12-13T12:55:55;-2.50;99.90
4399;DHT22;2213;49.720;7.296;2022-12-13T12:58:39;-2.50;99.90
4399;DHT22;2213;49.720;7.296;2022-12-13T13:01:28;-2.40;99.90
4399;DHT22;2213;49.720;7.296;2022-12-13T13:04:15;-2.40;99.90
4399;DHT22;2213;49.720;7.296;2022-12-13T13:06:52;-2.40;99.90
4399;DHT22;2213;49.720;7.296;2022-12-13T13:09:30;-2.30;99.90
4399;DHT22;2213;49.720;7.296;2022-12-13T13:12:02;-2.30;99.90
4399;DHT22;2213;49.720;7.296;2022-12-13T13:14:54;-2.40;99.90
4399;DHT22;2213;49.720;7.296;2022-12-13T13:17:43;-2.30;99.90
4399;DHT22;2213;49.720;7.296;2022-12-13T13:20:19;-2.30;99.90
4399;DHT22;2213;49.720;7.296;2022-12-13T13:22:51;-2.40;99.90
4399;DHT22;2213;49.720;7.296;2022-12-13T13:25:44;-2.30;99.90
4399;DHT22;2213;49.720;7.296;2022-12-13T13:28:42;-2.30;99.90
4399;DHT22;2213;49.720;7.296;2022-12-13T13:31:13;-2.40;99.90
4399;DHT22;2213;49.720;7.296;2022-12-13T13:33:45;-2.30;99.90
4399;DHT22;2213;49.720;7.296;2022-12-13T13:36:45;-2.30;99.90
4399;DHT22;2213;49.720;7.296;2022-12-13T13:39:37;-2.40;99.90
4399;DHT22;2213;49.720;7.296;2022-12-13T13:42:26;-2.50;99.90
4399;DHT22;2213;49.720;7.296;2022-12-13T13:45:20;-2.40;99.90
4399;DHT22;2213;49.720;7.296;2022-12-13T13:48:09;-2.50;99.90
4399;DHT22;2213;49.720;7.296;2022-12-13T13:54:51;-2.40;99.90
4399;DHT22;2213;49.720;7.296;2022-12-13T14:08:48;-2.50;99.90
4399;DHT22;2213;49.720;7.296;2022-12-13T14:22:40;-2.50;99.90
4399;DHT22;2213;49.720;7.296;2022-12-13T14:25:25;-2.50;99.90
4399;DHT22;2213;49.720;7.296;2022-12-13T14:28:26;-2.50;99.90
4399;DHT22;2213;49.720;7.296;2022-12-13T14:31:03;-2.40;99.90
4399;DHT22;2213;49.720;7.296;2022-12-13T14:33:32;-2.30;99.90
4399;DHT22;2213;49.720;7.296;2022-12-13T14:36:02;-2.40;99.90
4399;DHT22;2213;49.720;7.296;2022-12-13T14:38:32;-2.40;99.90
4399;DHT22;2213;49.720;7.296;2022-12-13T14:41:05;-2.50;99.90
4399;DHT22;2213;49.720;7.296;2022-12-13T14:43:42;-2.40;99.90
4399;DHT22;2213;49.720;7.296;2022-12-13T14:46:16;-2.40;99.90
4399;DHT22;2213;49.720;7.296;2022-12-13T14:48:48;-2.30;99.90
4399;DHT22;2213;49.720;7.296;2022-12-13T14:51:30;-2.30;99.90
4399;DHT22;2213;49.720;7.296;2022-12-13T14:54:02;-2.30;99.90
4399;DHT22;2213;49.720;7.296;2022-12-13T14:56:34;-2.40;99.90
4399;DHT22;2213;49.720;7.296;2022-12-13T14:59:11;-2.40;99.90
4399;DHT22;2213;49.720;7.296;2022-12-13T15:01:41;-2.50;99.90
4399;DHT22;2213;49.720;7.296;2022-12-13T15:04:26;-2.50;99.90
4399;DHT22;2213;49.720;7.296;2022-12-13T15:07:00;-2.50;99.90
4399;DHT22;2213;49.720;7.296;2022-12-13T15:09:56;-2.40;99.90
4399;DHT22;2213;49.720;7.296;2022-12-13T15:12:28;-2.40;99.90
4399;DHT22;2213;49.720;7.296;2022-12-13T15:15:00;-2.50;99.90
4399;DHT22;2213;49.720;7.296;2022-12-13T15:17:35;-2.50;99.90
4399;DHT22;2213;49.720;7.296;2022-12-13T15:20:21;-2.40;99.90
4399;DHT22;2213;49.720;7.296;2022-12-13T15:22:57;-2.50;99.90
4399;DHT22;2213;49.720;7.296;2022-12-13T15:25:29;-2.60;99.90
4399;DHT22;2213;49.720;7.296;2022-12-13T15:28:03;-2.70;99.90
4399;DHT22;2213;49.720;7.296;2022-12-13T15:30:34;-2.60;99.90
4399;DHT22;2213;49.720;7.296;2022-12-13T15:33:05;-2.70;99.90
4399;DHT22;2213;49.720;7.296;2022-12-13T15:35:37;-2.70;99.90
4399;DHT22;2213;49.720;7.296;2022-12-13T15:38:15;-2.80;99.90
4399;DHT22;2213;49.720;7.296;2022-12-13T15:40:56;-2.80;99.90
4399;DHT22;2213;49.720;7.296;2022-12-13T15:43:33;-2.80;99.90
4399;DHT22;2213;49.720;7.296;2022-12-13T15:46:05;-2.80;99.90
4399;DHT22;2213;49.720;7.296;2022-12-13T15:48:37;-2.70;99.90
4399;DHT22;2213;49.720;7.296;2022-12-13T15:51:16;-2.70;99.90
4399;DHT22;2213;49.720;7.296;2022-12-13T15:54:23;-2.80;99.90
4399;DHT22;2213;49.720;7.296;2022-12-13T15:57:09;-2.80;99.90
4399;DHT22;2213;49.720;7.296;2022-12-13T15:59:43;-2.80;99.90
4399;DHT22;2213;49.720;7.296;2022-12-13T16:02:15;-2.80;99.90
4399;DHT22;2213;49.720;7.296;2022-12-13T16:04:48;-2.80;99.90
4399;DHT22;2213;49.720;7.296;2022-12-13T16:07:21;-2.70;99.90
4399;DHT22;2213;49.720;7.296;2022-12-13T16:09:53;-2.70;99.90
4399;DHT22;2213;49.720;7.296;2022-12-13T16:12:25;-2.70;99.90
4399;DHT22;2213;49.720;7.296;2022-12-13T16:15:14;-2.60;99.90
4399;DHT22;2213;49.720;7.296;2022-12-13T16:18:05;-2.70;99.90
4399;DHT22;2213;49.720;7.296;2022-12-13T16:20:41;-2.80;99.90
4399;DHT22;2213;49.720;7.296;2022-12-13T16:23:12;-2.70;99.90
4399;DHT22;2213;49.720;7.296;2022-12-13T16:25:54;-2.70;99.90
4399;DHT22;2213;49.720;7.296;2022-12-13T16:28:24;-2.80;99.90
4399;DHT22;2213;49.720;7.296;2022-12-13T16:31:13;-2.80;99.90
4399;DHT22;2213;49.720;7.296;2022-12-13T16:33:47;-2.80;99.90
4399;DHT22;2213;49.720;7.296;2022-12-13T16:36:16;-2.80;99.90
4399;DHT22;2213;49.720;7.296;2022-12-13T16:38:45;-2.70;99.90
4399;DHT22;2213;49.720;7.296;2022-12-13T16:41:14;-2.80;99.90
4399;DHT22;2213;49.720;7.296;2022-12-13T16:43:55;-2.80;99.90
4399;DHT22;2213;49.720;7.296;2022-12-13T16:46:29;-2.80;99.90
4399;DHT22;2213;49.720;7.296;2022-12-13T16:49:21;-2.70;99.90
4399;DHT22;2213;49.720;7.296;2022-12-13T16:51:54;-2.70;99.90
4399;DHT22;2213;49.720;7.296;2022-12-13T16:54:24;-2.80;99.90
4399;DHT22;2213;49.720;7.296;2022-12-13T16:56:54;-2.90;99.90
4399;DHT22;2213;49.720;7.296;2022-12-13T16:59:25;-2.80;99.90
4399;DHT22;2213;49.720;7.296;2022-12-13T17:01:56;-2.90;99.90
4399;DHT22;2213;49.720;7.296;2022-12-13T17:04:26;-2.90;99.90
4399;DHT22;2213;49.720;7.296;2022-12-13T17:06:56;-2.80;99.90
4399;DHT22;2213;49.720;7.296;2022-12-13T17:09:25;-2.80;99.90
4399;DHT22;2213;49.720;7.296;2022-12-13T17:11:54;-2.70;99.90
4399;DHT22;2213;49.720;7.296;2022-12-13T17:14:24;-2.70;99.90
4399;DHT22;2213;49.720;7.296;2022-12-13T17:16:56;-2.80;99.90
4399;DHT22;2213;49.720;7.296;2022-12-13T17:19:26;-2.80;99.90
4399;DHT22;2213;49.720;7.296;2022-12-13T17:21:56;-2.70;99.90
4399;DHT22;2213;49.720;7.296;2022-12-13T17:24:25;-2.60;99.90
4399;DHT22;2213;49.720;7.296;2022-12-13T17:26:55;-2.60;99.90
4399;DHT22;2213;49.720;7.296;2022-12-13T17:29:23;-2.60;99.90
4399;DHT22;2213;49.720;7.296;2022-12-13T17:31:55;-2.60;99.90